createdAt,value
2018-11-22T00:00:06.115Z,7.0
2018-11-22T00:05:02.147Z,6.8
2018-11-22T00:10:01.112Z,6.7
2018-11-22T00:15:01.119Z,6.1
2018-11-22T00:20:01.155Z,6.7
2018-11-22T00:25:02.323Z,7.1
2018-11-22T00:30:01.119Z,7.2
2018-11-22T00:35:01.115Z,7.2
2018-11-22T00:40:01.149Z,7.8
2018-11-22T00:45:01.149Z,7.3
2018-11-22T00:50:01.153Z,7.5
2018-11-22T00:55:01.162Z,7.8
2018-11-22T01:00:01.145Z,8.0
2018-11-22T01:05:01.161Z,8.0
2018-11-22T01:10:01.169Z,8.2
2018-11-22T01:15:01.166Z,8.0
2018-11-22T01:20:01.199Z,7.9
2018-11-22T01:25:01.671Z,7.8
2018-11-22T01:30:01.112Z,8.2
2018-11-22T01:35:01.147Z,9.0
2018-11-22T01:45:01.140Z,9.7
2018-11-22T01:50:01.150Z,10.5
2018-11-22T01:55:01.159Z,10.7
2018-11-22T02:00:01.150Z,10.6
2018-11-22T02:05:01.150Z,10.6
2018-11-22T02:10:01.145Z,10.6
2018-11-22T02:15:01.150Z,10.8
2018-11-22T02:20:01.149Z,11.0
2018-11-22T02:25:01.152Z,11.4
2018-11-22T02:30:01.193Z,11.6
2018-11-22T02:35:01.197Z,12.2
2018-11-22T02:40:01.164Z,12.0
2018-11-22T02:45:01.209Z,11.9
2018-11-22T02:50:01.206Z,11.3
2018-11-22T02:55:01.208Z,11.3
2018-11-22T03:00:01.508Z,11.2
2018-11-22T03:05:02.219Z,11.2
2018-11-22T03:10:01.181Z,11.1
2018-11-22T03:15:01.183Z,11.3
2018-11-22T03:20:01.185Z,11.7
2018-11-22T03:25:01.182Z,11.7
2018-11-22T03:30:01.188Z,11.8
2018-11-22T03:35:01.217Z,12.0
2018-11-22T03:40:01.200Z,11.8
2018-11-22T03:45:01.189Z,11.9
2018-11-22T03:50:01.229Z,11.4
2018-11-22T03:55:01.196Z,11.6
2018-11-22T04:00:01.292Z,11.8
2018-11-22T04:05:02.331Z,12.2
2018-11-22T04:10:01.240Z,11.8
2018-11-22T04:15:01.249Z,12.2
2018-11-22T04:20:01.218Z,12.0
2018-11-22T04:25:01.236Z,11.6
2018-11-22T04:30:01.249Z,11.7
2018-11-22T04:35:01.455Z,11.8
2018-11-22T04:40:01.214Z,12.4
2018-11-22T04:45:01.254Z,12.4
2018-11-22T04:50:01.253Z,13.1
2018-11-22T04:55:01.261Z,13.2
2018-11-22T05:00:01.233Z,13.6
2018-11-22T05:05:01.257Z,12.8
2018-11-22T05:10:01.271Z,13.0
2018-11-22T05:15:01.228Z,12.6
2018-11-22T05:20:01.227Z,12.8
2018-11-22T05:25:01.293Z,12.2
2018-11-22T05:30:02.263Z,12.4
2018-11-22T05:35:01.490Z,12.1
2018-11-22T05:40:01.236Z,12.1
2018-11-22T05:45:01.244Z,12.1
2018-11-22T05:50:01.240Z,12.6
2018-11-22T05:55:01.256Z,12.9
2018-11-22T06:00:01.349Z,13.0
2018-11-22T06:05:01.283Z,13.1
2018-11-22T06:10:01.250Z,12.2
2018-11-22T06:15:01.252Z,12.4
2018-11-22T06:25:04.151Z,12.1
2018-11-22T06:30:01.255Z,12.7
2018-11-22T06:35:01.256Z,12.6
2018-11-22T06:40:01.261Z,12.6
2018-11-22T06:45:01.276Z,12.7
2018-11-22T06:50:01.263Z,13.0
2018-11-22T06:55:01.269Z,12.7
2018-11-22T07:00:01.276Z,13.0
2018-11-22T07:05:01.272Z,12.7
2018-11-22T07:10:01.270Z,13.3
2018-11-22T07:15:01.271Z,13.6
2018-11-22T07:20:01.273Z,13.4
2018-11-22T07:25:01.275Z,13.1
2018-11-22T07:30:01.303Z,13.2
2018-11-22T07:35:01.341Z,12.8
2018-11-22T07:40:01.315Z,12.5
2018-11-22T07:45:01.284Z,12.4
2018-11-22T07:50:01.309Z,13.0
2018-11-22T07:55:01.324Z,13.2
2018-11-22T08:00:01.324Z,12.7
2018-11-22T08:05:01.337Z,12.5
2018-11-22T08:10:01.331Z,13.5
2018-11-22T08:15:01.330Z,13.8
2018-11-22T08:20:01.342Z,14.2
2018-11-22T08:25:01.341Z,15.6
2018-11-22T08:30:01.341Z,15.9
2018-11-22T08:35:01.347Z,15.6
2018-11-22T08:40:01.348Z,15.9
2018-11-22T08:45:01.342Z,16.1
2018-11-22T08:50:01.345Z,15.6
2018-11-22T08:55:01.356Z,16.0
2018-11-22T09:00:01.352Z,17.0
2018-11-22T09:05:01.361Z,18.2
2018-11-22T09:10:02.962Z,19.0
2018-11-22T09:15:01.362Z,20.7
2018-11-22T09:20:01.360Z,22.7
2018-11-22T09:25:01.369Z,23.4
2018-11-22T09:30:01.391Z,23.4
2018-11-22T09:35:01.483Z,24.4
2018-11-22T09:40:02.392Z,24.1
2018-11-22T09:45:06.358Z,23.6
2018-11-22T09:50:01.380Z,23.6
2018-11-22T09:55:01.363Z,23.5
2018-11-22T10:00:01.369Z,23.1
2018-11-22T10:05:02.070Z,22.6
2018-11-22T10:10:01.385Z,23.1
2018-11-22T10:15:01.382Z,24.0
2018-11-22T10:20:01.379Z,24.4
2018-11-22T10:25:01.378Z,24.1
2018-11-22T10:30:01.461Z,24.6
2018-11-22T10:35:01.510Z,24.2
2018-11-22T10:40:01.352Z,22.5
2018-11-22T10:45:01.355Z,22.1
2018-11-22T10:50:06.405Z,22.4
2018-11-22T10:55:01.356Z,21.6
2018-11-22T11:00:01.355Z,22.2
2018-11-22T11:05:01.364Z,22.6
2018-11-22T11:15:01.400Z,22.1
2018-11-22T11:20:01.392Z,23.2
2018-11-22T11:25:01.471Z,22.1
2018-11-22T11:30:01.364Z,21.8
2018-11-22T11:35:01.411Z,22.6
2018-11-22T11:40:01.444Z,21.9
2018-11-22T11:45:01.417Z,21.4
2018-11-22T11:55:01.386Z,22.0
2018-11-22T12:00:01.385Z,22.3
2018-11-22T12:05:01.391Z,22.4
2018-11-22T12:10:01.386Z,21.1
2018-11-22T12:15:01.407Z,21.1
2018-11-22T12:20:01.394Z,20.4
2018-11-22T12:25:01.396Z,19.7
2018-11-22T12:30:01.384Z,19.6
2018-11-22T12:35:01.379Z,20.6
2018-11-22T12:40:01.456Z,21.7
2018-11-22T12:45:01.391Z,21.6
2018-11-22T12:50:01.393Z,22.4
2018-11-22T12:55:01.390Z,22.7
2018-11-22T13:00:01.461Z,22.6
2018-11-22T13:05:01.393Z,22.2
2018-11-22T13:10:01.397Z,23.1
2018-11-22T13:15:01.400Z,23.1
2018-11-22T13:20:01.385Z,23.9
2018-11-22T13:25:01.381Z,24.5
2018-11-22T13:30:01.389Z,25.0
2018-11-22T13:35:01.389Z,24.6
2018-11-22T13:40:01.527Z,24.0
2018-11-22T13:45:01.395Z,23.0
2018-11-22T13:50:01.397Z,22.8
2018-11-22T13:55:01.383Z,21.9
2018-11-22T14:00:06.412Z,21.0
2018-11-22T14:05:11.979Z,20.7
2018-11-22T14:10:01.569Z,21.2
2018-11-22T14:15:01.389Z,21.5
2018-11-22T14:20:01.391Z,20.8
2018-11-22T14:25:01.394Z,21.3
2018-11-22T14:30:01.407Z,21.8
2018-11-22T14:35:01.383Z,22.0
2018-11-22T14:40:01.509Z,21.5
2018-11-22T14:45:01.387Z,22.7
2018-11-22T14:50:01.392Z,22.8
2018-11-22T14:55:01.391Z,23.1
2018-11-22T15:00:01.389Z,22.2
2018-11-22T15:05:01.390Z,22.3
2018-11-22T15:10:01.577Z,22.0
2018-11-22T15:15:01.397Z,21.5
2018-11-22T15:20:01.545Z,21.5
2018-11-22T15:26:01.375Z,22.2
2018-11-22T15:31:01.376Z,22.6
2018-11-22T15:36:01.390Z,23.3
2018-11-22T15:41:02.396Z,23.6
2018-11-22T15:46:01.380Z,24.0
2018-11-22T15:51:01.390Z,24.7
2018-11-22T15:56:01.387Z,24.2
2018-11-22T16:01:01.388Z,24.0
2018-11-22T16:06:01.375Z,25.0
2018-11-22T16:11:01.710Z,25.0
2018-11-22T16:16:01.379Z,24.3
2018-11-22T16:21:01.380Z,24.6
2018-11-22T16:26:01.405Z,23.5
2018-11-22T16:31:06.391Z,23.2
2018-11-22T16:36:01.920Z,22.3
2018-11-22T16:41:01.530Z,22.2
2018-11-22T16:46:06.385Z,22.0
2018-11-22T16:51:06.395Z,22.6
2018-11-22T16:56:06.467Z,22.2
2018-11-22T17:01:06.401Z,22.1
2018-11-22T17:06:06.402Z,22.3
2018-11-22T17:11:02.649Z,22.1
2018-11-22T17:16:01.419Z,22.5
2018-11-22T17:21:06.383Z,22.6
2018-11-22T17:26:06.390Z,23.7
2018-11-22T17:31:01.389Z,24.0
2018-11-22T17:36:02.107Z,25.1
2018-11-22T17:41:01.411Z,24.7
2018-11-22T17:46:01.399Z,25.5
2018-11-22T17:51:01.389Z,26.3
2018-11-22T17:56:01.394Z,27.3
2018-11-22T18:02:01.382Z,27.9
2018-11-22T18:07:01.385Z,28.8
2018-11-22T18:12:06.394Z,28.9
2018-11-22T18:17:06.401Z,28.0
2018-11-22T18:22:01.440Z,27.0
2018-11-22T18:27:01.398Z,26.8
2018-11-22T18:37:01.381Z,26.6
2018-11-22T18:42:01.377Z,26.2
2018-11-22T18:47:01.388Z,26.3
2018-11-22T18:52:01.381Z,25.4
2018-11-22T18:57:01.390Z,25.8
2018-11-22T19:02:01.449Z,25.1
2018-11-22T19:07:01.350Z,25.3
2018-11-22T19:12:01.391Z,24.8
2018-11-22T19:17:01.389Z,24.6
2018-11-22T19:22:01.388Z,23.5
2018-11-22T19:27:01.378Z,24.0
2018-11-22T19:32:01.376Z,24.4
2018-11-22T19:37:08.628Z,24.6
2018-11-22T19:42:01.606Z,24.9
2018-11-22T19:47:01.387Z,24.9
2018-11-22T19:52:06.394Z,24.1
2018-11-22T19:57:06.398Z,23.3
2018-11-22T20:02:01.426Z,22.3
2018-11-22T20:07:06.386Z,21.0
2018-11-22T20:12:06.462Z,20.4
2018-11-22T20:17:01.438Z,20.2
2018-11-22T20:22:01.650Z,20.2
2018-11-22T20:27:01.714Z,20.2
2018-11-22T20:32:01.762Z,20.8
2018-11-22T20:37:01.435Z,21.2
2018-11-22T20:42:01.401Z,22.0
2018-11-22T20:47:01.382Z,21.1
2018-11-22T20:52:01.640Z,22.2
2018-11-22T20:57:01.577Z,22.6
2018-11-22T21:02:01.382Z,22.5
2018-11-22T21:07:01.389Z,22.6
2018-11-22T21:12:01.401Z,23.2
2018-11-22T21:17:01.394Z,22.9
2018-11-22T21:22:01.371Z,22.0
2018-11-22T21:27:01.385Z,21.6
2018-11-22T21:32:01.380Z,20.7
2018-11-22T21:37:01.382Z,20.6
2018-11-22T21:42:01.382Z,19.8
2018-11-22T21:47:01.380Z,19.6
2018-11-22T21:52:01.385Z,19.6
2018-11-22T21:57:01.361Z,18.8
2018-11-22T22:02:01.397Z,18.1
2018-11-22T22:07:01.373Z,18.0
2018-11-22T22:12:01.439Z,18.2
2018-11-22T22:17:01.388Z,17.9
2018-11-22T22:22:01.383Z,17.8
2018-11-22T22:27:01.417Z,17.8
2018-11-22T22:32:02.158Z,17.4
2018-11-22T22:37:01.410Z,17.6
2018-11-22T22:48:01.381Z,17.8
2018-11-22T22:53:06.396Z,18.1
2018-11-22T22:58:01.386Z,17.9
2018-11-22T23:03:06.405Z,17.6
2018-11-22T23:08:01.387Z,18.4
2018-11-22T23:13:01.394Z,18.3
2018-11-22T23:18:01.372Z,18.7
2018-11-22T23:23:01.386Z,19.3
2018-11-22T23:28:03.419Z,19.6
2018-11-22T23:33:01.415Z,19.0
2018-11-22T23:38:01.409Z,19.0
2018-11-22T23:43:06.653Z,18.5
2018-11-22T23:48:01.430Z,18.2
2018-11-22T23:53:01.428Z,17.8
2018-11-22T23:58:01.424Z,18.1
